Time;durP1;ratioP1;P1;durP2;ratioP2;P2;SDS_P1;SDS_P2;PMS_P1;PMS_P2;Temp;Humidity;BMP_temperature;BMP_pressure;BME280_temperature;BME280_humidity;BME280_pressure;Samples;Min_cycle;Max_cycle;Signal;HPM_P1;HPM_P2
2024/04/12 00:01:42;;;;;;;2.37;1.70;;;;;;;20.14;54.80;99056.19;5425275;26;20612;-26
2024/04/12 00:04:09;;;;;;;2.90;2.00;;;;;;;20.14;54.67;99052.72;5422129;26;20277;-25
2024/04/12 00:06:39;;;;;;;2.97;2.10;;;;;;;20.15;54.85;99049.38;5433632;26;20273;-25
2024/04/12 00:09:17;;;;;;;2.63;2.07;;;;;;;20.15;54.69;99050.28;5438491;26;20645;-26
2024/04/12 00:11:45;;;;;;;2.40;1.70;;;;;;;20.15;55.28;99051.94;5417531;26;20296;-26
2024/04/12 00:14:15;;;;;;;1.80;1.70;;;;;;;20.16;55.14;99056.25;5416377;26;20799;-26
2024/04/12 00:16:50;;;;;;;3.17;1.90;;;;;;;20.14;54.83;99050.19;5439276;26;20273;-25
2024/04/12 00:19:19;;;;;;;2.80;2.30;;;;;;;20.16;55.20;99053.72;5432031;26;20234;-27
2024/04/12 00:21:46;;;;;;;2.23;2.03;;;;;;;20.14;55.13;99048.53;5416670;26;20565;-27
2024/04/12 00:24:14;;;;;;;2.57;1.70;;;;;;;20.13;55.10;99039.06;5436007;26;20242;-28
2024/04/12 00:26:43;;;;;;;2.63;2.10;;;;;;;20.15;55.48;99046.81;5431761;26;20230;-26
2024/04/12 00:29:25;;;;;;;2.00;1.70;;;;;;;20.12;55.02;99038.97;5425069;26;20230;-26
2024/04/12 00:32:03;;;;;;;2.43;1.80;;;;;;;20.14;54.92;99045.06;5427214;26;20298;-26
2024/04/12 00:34:39;;;;;;;3.77;2.10;;;;;;;20.14;54.74;99034.88;5432531;26;20303;-26
2024/04/12 00:37:07;;;;;;;3.63;1.97;;;;;;;20.13;55.08;99025.47;5436633;26;20562;-26
2024/04/12 00:39:38;;;;;;;3.50;2.20;;;;;;;20.13;55.04;99028.00;5433404;26;20230;-26
2024/04/12 00:42:09;;;;;;;2.43;2.00;;;;;;;20.15;54.81;99027.28;5422349;26;20234;-26
2024/04/12 00:44:38;;;;;;;2.60;2.00;;;;;;;20.15;55.49;99027.28;5444491;26;20594;-27
2024/04/12 00:47:19;;;;;;;2.77;2.40;;;;;;;20.14;55.58;99025.53;5429865;26;20233;-26
2024/04/12 00:49:50;;;;;;;2.97;1.90;;;;;;;20.14;54.89;99020.44;5426894;26;20238;-27
2024/04/12 00:52:26;;;;;;;2.33;2.00;;;;;;;20.14;55.28;99019.53;5422047;26;20264;-27
2024/04/12 00:54:56;;;;;;;2.37;2.00;;;;;;;20.14;55.54;99027.22;5439152;26;20611;-26
2024/04/12 00:57:22;;;;;;;3.13;2.10;;;;;;;20.14;55.45;99024.66;5417355;26;20772;-27
2024/04/12 00:59:51;;;;;;;3.40;2.10;;;;;;;20.15;55.25;99022.19;5420373;26;20289;-25
2024/04/12 01:02:22;;;;;;;2.20;1.93;;;;;;;20.15;55.09;99028.97;5438740;26;20359;-26
2024/04/12 01:04:49;;;;;;;3.37;2.00;;;;;;;20.14;54.95;99019.53;5426496;26;20264;-25
2024/04/12 01:07:18;;;;;;;1.80;1.60;;;;;;;20.04;55.34;99002.78;5424241;26;20331;-26
2024/04/12 01:09:44;;;;;;;3.00;2.23;;;;;;;20.08;55.13;99011.50;5437364;26;20648;-25
2024/04/12 01:12:17;;;;;;;2.67;1.93;;;;;;;20.14;55.05;99025.53;5433807;26;20230;-25
2024/04/12 01:14:44;;;;;;;4.37;2.23;;;;;;;20.14;55.05;99025.53;5427942;26;20748;-27
2024/04/12 01:17:11;;;;;;;2.30;1.90;;;;;;;20.15;55.10;99021.28;5449209;26;20229;-26
2024/04/12 01:19:38;;;;;;;2.20;2.00;;;;;;;20.15;55.35;99027.28;5442266;26;20745;-28
2024/04/12 01:22:05;;;;;;;4.53;2.10;;;;;;;20.16;55.32;99025.63;5414406;26;20262;-27
2024/04/12 01:24:33;;;;;;;2.50;1.73;;;;;;;20.15;55.22;99019.63;5432561;26;20638;-27
2024/04/12 01:27:06;;;;;;;2.83;2.30;;;;;;;20.16;55.48;99031.59;5426549;26;20238;-26
2024/04/12 01:29:33;;;;;;;3.13;1.90;;;;;;;20.17;55.61;99027.38;5422610;26;20225;-26
2024/04/12 01:32:03;;;;;;;2.43;2.20;;;;;;;20.16;55.20;99033.28;5437994;26;20327;-26
2024/04/12 01:34:31;;;;;;;3.33;1.90;;;;;;;20.17;55.64;99027.38;5429479;26;20272;-26
2024/04/12 01:37:00;;;;;;;3.07;2.27;;;;;;;20.16;55.48;99025.63;5452501;26;20330;-27
2024/04/12 01:39:28;;;;;;;2.73;2.27;;;;;;;20.15;55.64;99026.41;5437178;26;20370;-27
2024/04/12 01:41:55;;;;;;;3.43;2.20;;;;;;;20.14;55.16;99030.66;5437457;26;20233;-26
2024/04/12 01:44:24;;;;;;;5.33;2.00;;;;;;;20.12;55.54;99029.63;5425639;26;20596;-25
2024/04/12 01:46:52;;;;;;;4.37;2.27;;;;;;;20.14;55.73;99027.22;5428591;26;20265;-26
2024/04/12 01:49:22;;;;;;;2.30;2.10;;;;;;;20.14;55.62;99030.66;5416146;26;20274;-27
2024/04/12 01:51:49;;;;;;;4.63;2.10;;;;;;;20.16;55.44;99035.84;5421049;26;20278;-26
2024/04/12 01:54:17;;;;;;;3.53;2.17;;;;;;;20.15;55.74;99029.84;5433433;26;20284;-27
2024/04/12 01:56:47;;;;;;;2.17;1.73;;;;;;;20.16;55.38;99035.84;5427290;26;20266;-27
2024/04/12 01:59:15;;;;;;;3.27;2.20;;;;;;;20.14;55.33;99027.22;5428933;26;20281;-26
2024/04/12 02:01:46;;;;;;;2.77;2.07;;;;;;;20.16;55.06;99026.50;5420028;26;20235;-26
2024/04/12 02:04:18;;;;;;;3.07;2.50;;;;;;;20.15;55.44;99027.28;5431022;26;20724;-26
2024/04/12 02:06:45;;;;;;;2.60;2.23;;;;;;;20.16;55.03;99020.53;5415941;26;20282;-26
2024/04/12 02:09:14;;;;;;;2.83;2.00;;;;;;;20.17;55.41;99023.16;5427779;26;20326;-27
2024/04/12 02:11:47;;;;;;;2.53;2.20;;;;;;;20.17;55.29;99018.06;5429911;26;20352;-26
2024/04/12 02:14:13;;;;;;;3.40;2.27;;;;;;;20.17;55.39;99019.72;5423233;26;20579;-25
2024/04/12 02:16:41;;;;;;;2.47;2.17;;;;;;;20.18;55.43;99021.47;5415597;26;20721;-26
2024/04/12 02:19:15;;;;;;;3.27;2.17;;;;;;;20.17;55.38;99019.72;5424241;26;20229;-27
2024/04/12 02:21:42;;;;;;;2.17;1.87;;;;;;;20.16;55.01;99012.88;5439749;26;20222;-27
2024/04/12 02:24:09;;;;;;;2.13;1.97;;;;;;;20.14;55.60;99017.88;5422592;26;20237;-26
2024/04/12 02:26:37;;;;;;;2.63;2.10;;;;;;;20.13;55.72;99023.75;5423002;26;20330;-26
2024/04/12 02:29:04;;;;;;;4.37;2.10;;;;;;;20.15;55.72;99016.19;5425086;26;20258;-26
2024/04/12 02:31:31;;;;;;;2.77;2.20;;;;;;;20.15;55.19;99018.75;5445402;26;20230;-27
2024/04/12 02:33:59;;;;;;;3.87;2.40;;;;;;;20.14;55.37;99017.00;5439975;26;20233;-27
2024/04/12 02:36:30;;;;;;;2.13;1.87;;;;;;;20.15;55.85;99019.63;5428581;26;20225;-26
2024/04/12 02:38:57;;;;;;;3.93;2.13;;;;;;;20.11;55.67;99012.56;5436669;26;20270;-26
2024/04/12 02:41:24;;;;;;;2.50;2.30;;;;;;;20.16;55.46;99015.44;5435481;26;20281;-25
2024/04/12 02:43:55;;;;;;;3.43;2.33;;;;;;;20.16;55.59;99012.88;5440085;26;20775;-26
2024/04/12 02:46:24;;;;;;;2.40;2.10;;;;;;;20.17;55.20;99017.16;5424904;26;20233;-27
2024/04/12 02:48:51;;;;;;;2.20;2.00;;;;;;;20.17;55.27;99017.16;5417632;26;20226;-26
2024/04/12 02:51:21;;;;;;;2.97;1.93;;;;;;;20.17;55.46;99014.63;5437947;26;20260;-25
2024/04/12 02:53:50;;;;;;;2.07;1.90;;;;;;;20.17;55.87;99015.50;5439085;26;20279;-25
2024/04/12 02:56:18;;;;;;;2.40;1.90;;;;;;;20.15;55.52;99001.78;5436098;26;20246;-25
2024/04/12 02:58:45;;;;;;;3.27;2.20;;;;;;;20.14;55.87;99009.34;5427127;26;20258;-25
2024/04/12 03:01:17;;;;;;;2.17;1.90;;;;;;;20.13;55.63;99016.09;5426130;26;20272;-26
2024/04/12 03:03:50;;;;;;;2.10;1.93;;;;;;;20.06;55.18;98997.75;5433260;26;20233;-27
2024/04/12 03:06:20;;;;;;;2.37;1.97;;;;;;;20.13;55.27;99012.69;5418936;26;20226;-26
2024/04/12 03:08:49;;;;;;;3.13;1.97;;;;;;;20.13;55.50;99018.66;5425766;26;20235;-27
2024/04/12 03:11:26;;;;;;;2.30;2.10;;;;;;;20.16;55.30;99023.09;5427009;26;20307;-26
2024/04/12 03:13:58;;;;;;;2.07;1.87;;;;;;;20.15;55.54;99022.19;5435077;26;20267;-27
2024/04/12 03:16:25;;;;;;;4.13;1.90;;;;;;;20.15;55.28;99023.84;5430025;26;20229;-25
2024/04/12 03:18:52;;;;;;;2.40;2.17;;;;;;;20.08;55.39;99014.06;5425459;26;20643;-27
2024/04/12 03:21:26;;;;;;;2.63;2.07;;;;;;;20.15;55.84;99027.28;5427493;26;20298;-27
2024/04/12 03:23:54;;;;;;;2.43;2.10;;;;;;;20.14;55.90;99020.44;5430614;26;20242;-25
2024/04/12 03:26:21;;;;;;;3.20;2.13;;;;;;;20.15;55.85;99017.09;5442275;26;20226;-27
2024/04/12 03:28:54;;;;;;;2.93;2.00;;;;;;;20.15;55.53;99018.75;5429833;26;20273;-26
2024/04/12 03:31:25;;;;;;;2.33;2.13;;;;;;;20.16;55.65;99029.03;5418847;26;20562;-26
2024/04/12 03:33:54;;;;;;;2.93;2.23;;;;;;;20.14;55.55;99019.53;5434731;26;20610;-26
2024/04/12 03:42:04;;;;;;;2.10;1.90;;;;;;;20.14;55.25;99024.66;5424334;26;20330;-27
2024/04/12 03:44:34;;;;;;;2.47;2.17;;;;;;;20.15;55.85;99032.41;5428060;26;20623;-26
2024/04/12 03:47:10;;;;;;;2.80;2.13;;;;;;;20.14;55.23;99028.09;5415305;26;20266;-26
2024/04/12 03:49:40;;;;;;;3.50;1.97;;;;;;;20.12;55.39;99021.09;5432519;26;20828;-26
2024/04/12 03:52:14;;;;;;;2.17;1.97;;;;;;;20.07;55.48;99009.75;5420599;26;20322;-24
2024/04/12 03:54:43;;;;;;;3.17;1.90;;;;;;;20.15;55.36;99021.28;5428167;26;20332;-26
2024/04/12 03:57:09;;;;;;;2.40;2.20;;;;;;;20.15;55.95;99026.41;5425486;26;20234;-26
2024/04/12 03:59:38;;;;;;;2.67;2.10;;;;;;;20.15;55.74;99027.28;5420065;26;20266;-25
2024/04/12 04:02:07;;;;;;;2.30;2.10;;;;;;;20.13;55.43;99021.22;5449105;26;20318;-26
2024/04/12 04:04:44;;;;;;;2.20;2.00;;;;;;;20.16;55.30;99034.16;5426624;26;20241;-25
2024/04/12 04:07:14;;;;;;;2.40;2.13;;;;;;;20.17;55.72;99035.94;5425329;26;20603;-27
2024/04/12 04:09:42;;;;;;;2.07;1.80;;;;;;;20.16;55.70;99036.72;5446710;26;20252;-26
2024/04/12 04:12:15;;;;;;;2.70;1.87;;;;;;;20.18;55.84;99047.00;5427301;26;20237;-27
2024/04/12 04:14:48;;;;;;;2.33;2.10;;;;;;;20.17;55.51;99046.16;5433733;26;20234;-27
2024/04/12 04:17:18;;;;;;;3.40;2.20;;;;;;;20.18;55.99;99049.56;5433359;26;20275;-25
2024/04/12 04:19:45;;;;;;;2.30;2.10;;;;;;;20.19;55.90;99049.66;5424275;26;20729;-26
2024/04/12 04:24:51;;;;;;;3.40;2.60;;;;;;;20.20;55.62;99045.44;5441580;26;20273;-27
2024/04/12 04:27:21;;;;;;;2.70;2.10;;;;;;;20.18;56.10;99045.34;5416274;26;20795;-27
2024/04/12 04:29:51;;;;;;;2.67;2.13;;;;;;;20.18;55.34;99049.56;5423098;26;20230;-25
2024/04/12 04:32:21;;;;;;;2.33;2.13;;;;;;;20.19;56.05;99052.19;5431717;26;20227;-26
2024/04/12 04:34:54;;;;;;;2.43;2.10;;;;;;;20.20;56.05;99050.53;5442355;26;20238;-27
2024/04/12 04:37:21;;;;;;;2.33;1.83;;;;;;;20.20;55.93;99047.97;5419189;26;20324;-26
2024/04/12 04:39:53;;;;;;;2.40;2.20;;;;;;;20.19;55.39;99042.00;5432105;26;20280;-25
2024/04/12 04:42:23;;;;;;;2.83;2.53;;;;;;;20.20;56.05;99046.31;5433173;26;20239;-25
2024/04/12 04:44:50;;;;;;;2.27;1.97;;;;;;;20.14;55.88;99037.41;5433518;26;20666;-25
2024/04/12 04:47:17;;;;;;;1.97;1.87;;;;;;;20.19;55.77;99052.19;5439997;26;20250;-26
2024/04/12 04:49:44;;;;;;;2.23;2.03;;;;;;;20.19;55.28;99054.75;5437666;26;20227;-26
2024/04/12 04:52:10;;;;;;;2.67;2.10;;;;;;;20.18;55.45;99055.56;5420523;26;20230;-27
2024/04/12 04:54:39;;;;;;;2.17;1.97;;;;;;;20.19;55.80;99056.44;5430596;26;20226;-26
2024/04/12 04:57:08;;;;;;;2.37;2.10;;;;;;;20.19;55.37;99051.34;5446450;26;20326;-26
2024/04/12 04:59:35;;;;;;;2.20;2.00;;;;;;;20.19;55.44;99049.66;5438375;26;20260;-25
2024/04/12 05:02:02;;;;;;;2.40;2.20;;;;;;;20.20;55.97;99047.97;5427711;26;20241;-26
2024/04/12 05:04:32;;;;;;;2.67;2.33;;;;;;;20.20;55.46;99053.09;5414957;26;20292;-26
2024/04/12 05:06:59;;;;;;;2.30;2.10;;;;;;;20.20;55.88;99048.88;5441087;26;20331;-26
2024/04/12 05:09:27;;;;;;;2.17;2.00;;;;;;;20.15;56.10;99044.28;5440034;26;20230;-26
2024/04/12 05:11:54;;;;;;;2.00;1.90;;;;;;;20.21;55.34;99065.06;5433358;26;20267;-26
2024/04/12 05:17:09;;;;;;;3.70;2.40;;;;;;;20.20;55.53;99058.19;5448322;26;20321;-26
2024/04/12 05:19:40;;;;;;;4.93;2.13;;;;;;;20.22;55.78;99062.59;5449137;26;20225;-26
2024/04/12 05:22:09;;;;;;;4.17;2.50;;;;;;;20.22;56.04;99060.03;5432471;26;20260;-27
2024/04/12 05:24:35;;;;;;;9.60;2.97;;;;;;;20.24;56.28;99066.13;5429279;26;20233;-26
2024/04/12 05:27:04;;;;;;;4.80;2.30;;;;;;;20.24;55.93;99063.56;5439610;26;20226;-27
2024/04/12 05:29:31;;;;;;;5.53;2.50;;;;;;;20.25;55.53;99059.34;5444038;26;20337;-26
2024/04/12 05:31:58;;;;;;;4.27;2.50;;;;;;;20.26;55.90;99073.88;5438667;26;20587;-26
2024/04/12 05:34:26;;;;;;;5.90;2.60;;;;;;;20.26;56.09;99067.09;5443258;26;20230;-27
2024/04/12 05:37:03;;;;;;;4.27;2.73;;;;;;;20.28;55.99;99070.59;5439430;26;20231;-26
2024/04/12 05:39:35;;;;;;;4.30;2.50;;;;;;;20.29;55.62;99069.84;5436015;26;20230;-27
2024/04/12 05:42:05;;;;;;;4.93;2.57;;;;;;;20.32;55.19;99069.13;5441617;26;20226;-27
2024/04/12 05:44:33;;;;;;;4.43;2.20;;;;;;;20.32;55.51;99079.34;5431021;26;20229;-27
2024/04/12 05:47:01;;;;;;;2.83;2.27;;;;;;;20.33;55.36;99078.53;5423531;26;20227;-27
2024/04/12 05:49:30;;;;;;;2.90;2.33;;;;;;;20.32;55.50;99075.13;5437908;26;20290;-25
2024/04/12 05:52:01;;;;;;;3.50;2.47;;;;;;;20.33;55.69;99069.22;5428366;26;20222;-26
2024/04/12 05:54:40;;;;;;;4.03;2.53;;;;;;;20.33;55.27;99070.88;5420048;26;20331;-27
2024/04/12 05:57:07;;;;;;;2.43;2.20;;;;;;;20.35;55.63;99071.84;5426871;26;20256;-26
2024/04/12 05:59:34;;;;;;;5.23;2.70;;;;;;;20.36;55.04;99076.16;5418896;26;20274;-26
2024/04/12 06:02:05;;;;;;;3.30;2.43;;;;;;;20.35;55.08;99080.41;5438965;26;20230;-25
2024/04/12 06:04:32;;;;;;;6.27;2.33;;;;;;;20.35;55.34;99076.97;5418690;26;20744;-26
2024/04/12 06:07:03;;;;;;;4.17;2.30;;;;;;;20.35;55.46;99076.97;5425846;26;20576;-25
2024/04/12 06:09:30;;;;;;;2.70;2.50;;;;;;;20.34;54.22;99078.63;5431191;26;20230;-25
2024/04/12 06:11:57;;;;;;;6.40;2.90;;;;;;;20.32;54.38;99075.13;5425120;26;20261;-27
2024/04/12 06:14:24;;;;;;;3.90;2.80;;;;;;;20.32;53.81;99071.69;5428454;26;20728;-25
2024/04/12 06:16:51;;;;;;;3.93;2.87;;;;;;;20.30;54.31;99076.69;5432109;26;20242;-27
2024/04/12 06:19:18;;;;;;;9.50;3.33;;;;;;;20.30;54.18;99068.16;5431913;26;20322;-26
2024/04/12 06:21:45;;;;;;;3.77;2.83;;;;;;;20.31;54.22;99078.44;5427485;26;20241;-25
2024/04/12 06:24:15;;;;;;;4.20;3.00;;;;;;;20.31;54.15;99080.13;5431714;26;20281;-27
2024/04/12 06:26:47;;;;;;;4.23;2.87;;;;;;;20.31;54.26;99077.59;5423481;26;20242;-27
2024/04/12 06:29:16;;;;;;;5.17;3.47;;;;;;;20.30;52.00;99074.13;5449437;26;20229;-26
2024/04/12 06:31:58;;;;;;;6.17;3.97;;;;;;;20.29;50.59;99072.41;5438952;26;20227;-26
2024/04/12 06:34:24;;;;;;;11.10;5.27;;;;;;;20.27;50.91;99071.41;5435024;26;20225;-27
2024/04/12 06:36:57;;;;;;;8.80;4.13;;;;;;;20.22;51.21;99067.69;5428886;26;20222;-26
2024/04/12 06:39:26;;;;;;;7.33;4.10;;;;;;;20.22;52.25;99066.84;5418443;26;20229;-25
2024/04/12 06:41:54;;;;;;;6.83;4.50;;;;;;;20.21;52.32;99068.50;5440912;26;20231;-28
2024/04/12 06:44:21;;;;;;;4.80;4.20;;;;;;;20.21;52.25;99078.72;5416488;26;20246;-27
2024/04/12 06:46:58;;;;;;;5.43;4.27;;;;;;;20.20;52.87;99071.84;5425877;26;20266;-27
2024/04/12 06:49:27;;;;;;;5.27;4.53;;;;;;;20.20;52.57;99066.75;5436370;26;20771;-26
2024/04/12 06:52:09;;;;;;;7.10;3.90;;;;;;;20.20;52.90;99066.75;5428545;26;20238;-27
2024/04/12 06:54:41;;;;;;;6.53;3.90;;;;;;;20.20;52.95;99069.31;5421360;26;20573;-26
2024/04/12 06:57:24;;;;;;;7.13;4.17;;;;;;;20.22;52.95;99070.25;5429252;26;20820;-26
2024/04/12 06:59:55;;;;;;;4.07;3.70;;;;;;;20.20;53.35;99069.31;5419023;26;20800;-26
2024/04/12 07:02:25;;;;;;;3.63;3.30;;;;;;;20.20;52.96;99064.19;5427487;26;20222;-27
2024/04/12 07:04:53;;;;;;;5.23;3.80;;;;;;;20.22;53.77;99069.38;5430026;26;20281;-27
2024/04/12 07:07:22;;;;;;;5.73;3.50;;;;;;;20.23;53.07;99073.69;5434812;26;20225;-26
2024/04/12 07:09:50;;;;;;;6.03;3.47;;;;;;;20.24;53.12;99065.22;5436034;26;20225;-26
2024/04/12 07:12:19;;;;;;;4.77;3.43;;;;;;;20.23;53.25;99071.16;5430391;26;20234;-28
2024/04/12 07:14:50;;;;;;;3.90;3.47;;;;;;;20.23;53.86;99066.94;5415660;26;20331;-25
2024/04/12 07:17:23;;;;;;;5.67;4.13;;;;;;;20.23;53.65;99066.03;5420097;26;20346;-27
2024/04/12 07:19:51;;;;;;;4.60;3.40;;;;;;;20.24;53.41;99065.22;5428515;26;21145;-27
2024/04/12 07:22:20;;;;;;;7.90;3.40;;;;;;;20.22;54.06;99059.19;5427909;26;20630;-25
2024/04/12 07:24:50;;;;;;;3.80;3.33;;;;;;;20.24;53.71;99057.56;5418306;26;20732;-27
2024/04/12 07:27:18;;;;;;;3.70;3.20;;;;;;;20.23;53.81;99043.94;5416317;26;20234;-26
2024/04/12 07:29:46;;;;;;;3.97;3.10;;;;;;;20.22;53.86;99042.16;5441540;26;20260;-25
2024/04/12 07:32:14;;;;;;;4.80;3.37;;;;;;;20.25;54.05;99049.16;5418353;26;20733;-26
2024/04/12 07:34:50;;;;;;;3.67;2.93;;;;;;;20.22;53.92;99044.72;5434653;26;20234;-26
2024/04/12 07:37:36;;;;;;;4.20;3.10;;;;;;;20.25;53.83;99055.09;5414895;26;20226;-25
2024/04/12 07:40:15;;;;;;;3.20;2.83;;;;;;;20.24;53.70;99058.47;5414517;26;20276;-26
2024/04/12 07:42:48;;;;;;;3.03;2.70;;;;;;;20.25;54.04;99062.78;5423784;26;20274;-26
2024/04/12 07:45:23;;;;;;;3.93;2.87;;;;;;;20.26;54.15;99067.09;5411767;26;20242;-26
2024/04/12 07:47:53;;;;;;;3.23;2.93;;;;;;;20.25;53.65;99067.88;5425348;26;20233;-27
2024/04/12 07:50:31;;;;;;;3.37;3.07;;;;;;;20.25;54.06;99078.09;5420966;26;20235;-25
2024/04/12 07:53:21;;;;;;;3.60;3.00;;;;;;;20.26;53.67;99078.97;5424731;26;20235;-24
2024/04/12 07:56:14;;;;;;;4.20;3.00;;;;;;;20.27;54.38;99089.28;5431011;26;20349;-25
2024/04/12 07:58:42;;;;;;;3.10;2.70;;;;;;;20.25;53.86;99088.31;5421149;26;20266;-29
2024/04/12 08:01:15;;;;;;;2.67;2.47;;;;;;;20.26;54.36;99095.19;5433073;26;20249;-31
2024/04/12 08:03:43;;;;;;;3.00;2.67;;;;;;;20.25;54.37;99098.50;5413764;26;20256;-27
2024/04/12 08:06:19;;;;;;;4.97;2.70;;;;;;;20.22;54.05;99084.72;5427664;26;20601;-28
2024/04/12 08:08:46;;;;;;;3.60;2.57;;;;;;;20.24;54.35;99101.88;5418093;26;20828;-33
2024/04/12 08:14:05;;;;;;;4.07;2.53;;;;;;;20.25;54.54;99092.53;5442812;26;20226;-29
2024/04/12 08:16:36;;;;;;;2.63;2.43;;;;;;;20.25;53.86;99090.84;5433476;26;20237;-26
2024/04/12 08:19:12;;;;;;;3.87;2.80;;;;;;;20.26;54.27;99100.28;5434267;26;20280;-25
2024/04/12 08:21:42;;;;;;;2.83;2.30;;;;;;;20.26;54.39;99091.75;5423245;26;20782;-27
2024/04/12 08:24:10;;;;;;;3.13;2.80;;;;;;;20.26;53.87;99087.53;5429886;26;20958;-28
2024/04/12 08:26:47;;;;;;;2.83;2.57;;;;;;;20.26;54.15;99090.09;5434976;26;20221;-26
2024/04/12 08:29:36;;;;;;;2.43;2.20;;;;;;;20.25;54.38;99088.31;5425254;26;20649;-31
2024/04/12 08:32:27;;;;;;;3.17;2.70;;;;;;;20.27;54.35;99088.38;5439724;26;20328;-28
2024/04/12 08:34:55;;;;;;;2.90;2.40;;;;;;;20.29;54.54;99099.59;5438200;26;20230;-26
2024/04/12 08:37:30;;;;;;;4.30;2.47;;;;;;;20.30;54.08;99088.56;5435794;26;20233;-28
2024/04/12 08:39:57;;;;;;;2.60;2.40;;;;;;;20.30;54.33;99089.47;5417520;26;20226;-27
2024/04/12 08:42:28;;;;;;;2.70;2.40;;;;;;;20.30;54.49;99086.00;5430443;26;20234;-30
2024/04/12 08:44:59;;;;;;;3.23;2.93;;;;;;;20.31;54.26;99088.66;5423689;26;20745;-28
2024/04/12 08:50:06;;;;;;;2.83;2.50;;;;;;;20.31;54.29;99080.13;5427603;26;20273;-31
2024/04/12 08:52:48;;;;;;;2.33;2.10;;;;;;;20.35;54.00;99087.19;5420722;26;20835;-28
2024/04/12 08:55:20;;;;;;;3.03;2.23;;;;;;;20.33;54.15;99084.53;5438585;26;20257;-26
2024/04/12 08:57:48;;;;;;;2.83;2.57;;;;;;;20.33;53.87;99076.88;5433992;26;20233;-30
2024/04/12 09:00:18;;;;;;;2.13;2.00;;;;;;;20.34;53.84;99070.97;5444176;26;20237;-27
2024/04/12 09:02:51;;;;;;;2.10;2.00;;;;;;;20.34;53.78;99065.00;5424710;26;20782;-27
2024/04/12 09:05:24;;;;;;;2.50;2.30;;;;;;;20.34;54.49;99062.44;5425186;26;20579;-28
2024/04/12 09:07:52;;;;;;;2.40;2.20;;;;;;;20.34;54.08;99063.31;5438318;26;20263;-37
2024/04/12 09:10:19;;;;;;;2.43;2.00;;;;;;;20.35;54.09;99059.09;5417567;26;20269;-32
2024/04/12 09:12:46;;;;;;;2.50;2.30;;;;;;;20.35;54.55;99047.22;5422051;26;20771;-33
2024/04/12 09:15:23;;;;;;;2.10;2.00;;;;;;;20.35;54.47;99044.66;5419691;26;20246;-28
2024/04/12 09:18:13;;;;;;;2.30;2.10;;;;;;;20.32;53.98;99041.03;5427964;26;20229;-32
2024/04/12 09:20:41;;;;;;;2.27;2.00;;;;;;;20.36;54.31;99045.53;5429162;26;20595;-27
2024/04/12 09:23:14;;;;;;;1.97;1.87;;;;;;;20.35;54.19;99052.31;5428308;26;20498;-28
2024/04/12 09:25:56;;;;;;;2.23;2.03;;;;;;;20.36;54.31;99053.19;5429917;26;20234;-28
2024/04/12 09:28:30;;;;;;;2.27;2.07;;;;;;;20.35;54.10;99052.31;5428578;26;20234;-26
2024/04/12 09:33:52;;;;;;;2.13;2.00;;;;;;;20.32;54.30;99056.34;5425109;26;20342;-27
2024/04/12 09:36:39;;;;;;;2.10;1.90;;;;;;;20.35;54.51;99054.88;5428558;26;20290;-36
2024/04/12 09:39:14;;;;;;;2.57;2.37;;;;;;;20.34;54.19;99050.53;5433860;26;20276;-30
2024/04/12 09:41:56;;;;;;;3.13;2.23;;;;;;;20.36;53.88;99061.72;5427753;26;20705;-27
2024/04/12 09:44:27;;;;;;;2.50;2.30;;;;;;;20.33;53.98;99050.44;5440219;26;20234;-28
2024/04/12 10:39:44;;;;;;;2.37;2.17;;;;;;;20.32;53.97;99015.50;5447971;26;20221;-27
2024/04/12 10:42:12;;;;;;;3.93;2.57;;;;;;;20.31;54.17;99019.72;5442103;26;20229;-29
2024/04/12 10:44:40;;;;;;;3.63;2.50;;;;;;;20.31;54.31;99008.66;5435939;26;20237;-28
2024/04/12 10:47:12;;;;;;;2.73;2.47;;;;;;;20.31;54.53;99008.66;5442210;26;20229;-34
2024/04/12 10:49:43;;;;;;;3.37;2.63;;;;;;;20.32;54.22;99006.19;5431717;26;20801;-29
2024/04/12 10:52:13;;;;;;;4.30;2.53;;;;;;;20.32;54.21;98997.63;5425427;26;20218;-32
2024/04/12 10:54:42;;;;;;;4.60;3.10;;;;;;;20.32;54.41;98990.88;5427160;26;20235;-29
2024/04/12 10:57:11;;;;;;;7.57;3.13;;;;;;;20.34;54.31;98988.41;5432978;26;20229;-27
2024/04/12 10:59:42;;;;;;;6.57;3.53;;;;;;;20.34;53.85;98985.84;5424332;26;20752;-28
2024/04/12 11:02:11;;;;;;;6.53;2.97;;;;;;;20.33;54.12;98984.94;5435513;26;20832;-28
2024/04/12 11:07:26;;;;;;;13.20;3.47;;;;;;;20.33;53.96;98978.94;5418737;26;20217;-31
2024/04/12 11:09:59;;;;;;;8.47;3.20;;;;;;;20.33;53.73;98978.94;5416219;26;20981;-29
2024/04/12 11:12:30;;;;;;;9.37;3.63;;;;;;;20.33;53.65;98986.63;5422306;26;20234;-30
2024/04/12 11:31:06;;;;;;;8.77;3.33;;;;;;;20.30;54.23;98978.78;5427056;26;20231;-30
2024/04/12 11:32:00;;;;;;;11.10;3.47;;;;;;;20.26;54.14;98946.22;5428818;26;20261;-30
2024/04/12 11:34:29;;;;;;;11.97;3.73;;;;;;;20.27;53.76;98951.41;5429313;26;20684;-28
2024/04/12 11:37:07;;;;;;;9.10;3.77;;;;;;;20.25;53.75;98955.53;5420925;26;20234;-30
2024/04/12 11:39:35;;;;;;;8.03;3.20;;;;;;;20.27;54.42;98953.06;5421245;26;20225;-29
2024/04/12 11:42:03;;;;;;;6.67;3.27;;;;;;;20.26;54.43;98953.88;5415992;26;20292;-29
2024/04/12 11:44:30;;;;;;;10.97;3.60;;;;;;;20.25;54.01;98950.44;5439074;26;20923;-27
2024/04/12 11:46:56;;;;;;;8.40;3.40;;;;;;;20.24;54.20;98951.25;5440490;26;20264;-31
2024/04/12 11:49:26;;;;;;;9.10;3.73;;;;;;;20.21;54.09;98943.41;5416309;26;20334;-29
2024/04/12 11:51:55;;;;;;;8.30;3.20;;;;;;;20.25;53.86;98957.25;5421037;26;20231;-29
2024/04/12 11:54:29;;;;;;;8.30;3.50;;;;;;;20.21;53.84;98940.84;5435199;26;20261;-28
2024/04/12 11:56:59;;;;;;;8.60;3.33;;;;;;;20.22;54.56;98949.41;5430172;26;20234;-29
2024/04/12 11:59:30;;;;;;;7.13;3.40;;;;;;;20.19;53.92;98947.53;5430704;26;20235;-25
2024/04/12 12:02:00;;;;;;;7.17;3.70;;;;;;;20.21;54.44;98947.63;5430228;26;20317;-34
2024/04/12 12:04:33;;;;;;;10.67;3.40;;;;;;;20.20;54.53;98943.31;5436568;26;20242;-29
2024/04/12 12:07:03;;;;;;;10.83;3.53;;;;;;;20.24;54.49;98950.34;5431996;26;20289;-26
2024/04/12 12:09:36;;;;;;;7.33;3.13;;;;;;;20.24;54.32;98937.59;5415464;26;20238;-31
2024/04/12 12:12:10;;;;;;;9.50;3.30;;;;;;;20.23;53.86;98936.72;5428732;26;20844;-30
2024/04/12 12:14:38;;;;;;;9.40;3.63;;;;;;;20.23;54.46;98930.72;5436027;26;20563;-31
2024/04/12 12:17:06;;;;;;;12.83;3.43;;;;;;;20.22;54.50;98929.84;5440997;26;20237;-29
2024/04/12 12:19:33;;;;;;;11.07;3.60;;;;;;;20.18;54.13;98917.72;5439231;26;20795;-29
2024/04/12 12:22:00;;;;;;;12.43;3.70;;;;;;;20.22;54.36;98922.19;5437530;26;20226;-27
2024/04/12 12:24:27;;;;;;;7.33;3.30;;;;;;;20.22;54.63;98913.66;5443450;26;20273;-28
2024/04/12 12:26:53;;;;;;;13.03;3.57;;;;;;;20.23;54.28;98916.31;5426158;26;20230;-28
2024/04/12 12:29:21;;;;;;;11.43;4.20;;;;;;;20.22;54.08;98911.97;5433473;26;20231;-28
2024/04/12 12:31:48;;;;;;;17.87;4.43;;;;;;;20.22;54.78;98906.00;5432845;26;20282;-30
2024/04/12 12:34:14;;;;;;;14.30;3.90;;;;;;;20.21;54.10;98901.69;5420408;26;20268;-32
2024/04/12 12:36:41;;;;;;;18.60;3.90;;;;;;;20.21;54.13;98901.69;5422080;26;20235;-30
2024/04/12 12:39:09;;;;;;;22.07;4.43;;;;;;;20.20;54.67;98885.50;5428369;26;20272;-31
2024/04/12 12:41:36;;;;;;;17.03;4.27;;;;;;;20.22;54.16;98888.13;5428697;26;20689;-39
2024/04/12 12:44:06;;;;;;;7.90;3.80;;;;;;;20.23;54.68;98889.88;5422276;26;20286;-29
2024/04/12 12:46:32;;;;;;;17.23;4.37;;;;;;;20.23;54.72;98875.47;5428894;26;20222;-26
2024/04/12 12:48:59;;;;;;;12.40;3.80;;;;;;;20.16;54.13;98873.34;5446759;26;20222;-28
2024/04/12 12:51:26;;;;;;;9.97;3.73;;;;;;;20.24;54.53;98887.41;5424859;26;20229;-29
2024/04/12 12:53:56;;;;;;;9.03;4.10;;;;;;;20.23;53.93;98883.13;5422496;26;20254;-29
2024/04/12 12:56:22;;;;;;;7.50;3.37;;;;;;;20.23;54.45;98882.22;5434175;26;20286;-27
2024/04/12 12:58:49;;;;;;;8.37;3.67;;;;;;;20.22;54.31;98876.22;5433212;26;20234;-29
2024/04/12 13:01:16;;;;;;;10.00;3.97;;;;;;;20.23;54.64;98872.00;5448305;26;20253;-28
2024/04/12 13:03:46;;;;;;;10.17;4.17;;;;;;;20.21;54.23;98869.38;5428438;26;20249;-26
2024/04/12 13:06:22;;;;;;;7.70;3.60;;;;;;;20.21;54.60;98869.38;5420163;26;20321;-26
2024/04/12 13:08:49;;;;;;;7.57;3.90;;;;;;;20.20;54.53;98859.97;5431201;26;20245;-29
2024/04/12 13:11:24;;;;;;;11.60;3.50;;;;;;;20.19;54.08;98854.78;5433567;26;20237;-27
2024/04/12 13:13:51;;;;;;;7.70;3.80;;;;;;;20.17;54.63;98857.25;5444524;26;20576;-26
2024/04/12 13:16:17;;;;;;;7.60;3.50;;;;;;;20.16;54.25;98849.50;5446744;26;20234;-29